sensor_id;sensor_type;location;lat;lon;timestamp;pressure;altitude;pressure_sealevel;temperature;humidity
73936;BME280;62287;50.858;0.252;2023-05-17T00:00:26;102506.99;;;16.16;31.91
73936;BME280;62287;50.858;0.252;2023-05-17T00:00:57;102508.15;;;16.61;31.82
73936;BME280;62287;50.858;0.252;2023-05-17T00:01:28;102508.09;;;16.91;31.87
73936;BME280;62287;50.858;0.252;2023-05-17T00:01:59;102507.48;;;16.74;31.79
73936;BME280;62287;50.858;0.252;2023-05-17T00:02:30;102507.84;;;16.25;31.83
73936;BME280;62287;50.858;0.252;2023-05-17T00:03:01;102509.82;;;16.31;31.90
73936;BME280;62287;50.858;0.252;2023-05-17T00:03:32;102509.51;;;16.17;31.99
73936;BME280;62287;50.858;0.252;2023-05-17T00:04:03;102508.31;;;16.21;31.99
73936;BME280;62287;50.858;0.252;2023-05-17T00:04:34;102508.74;;;16.09;32.04
73936;BME280;62287;50.858;0.252;2023-05-17T00:05:06;102509.62;;;16.47;32.15
73936;BME280;62287;50.858;0.252;2023-05-17T00:05:37;102508.90;;;16.33;31.91
73936;BME280;62287;50.858;0.252;2023-05-17T00:06:09;102509.08;;;16.35;31.71
73936;BME280;62287;50.858;0.252;2023-05-17T00:06:40;102508.35;;;16.69;31.65
73936;BME280;62287;50.858;0.252;2023-05-17T00:07:11;102508.18;;;16.46;31.54
73936;BME280;62287;50.858;0.252;2023-05-17T00:07:42;102507.62;;;16.69;31.59
73936;BME280;62287;50.858;0.252;2023-05-17T00:08:13;102508.18;;;16.40;31.54
73936;BME280;62287;50.858;0.252;2023-05-17T00:08:44;102506.67;;;16.49;31.49
73936;BME280;62287;50.858;0.252;2023-05-17T00:09:15;102506.54;;;17.25;31.43
73936;BME280;62287;50.858;0.252;2023-05-17T00:09:46;102505.92;;;16.40;31.49
73936;BME280;62287;50.858;0.252;2023-05-17T00:10:17;102506.28;;;16.16;31.69
73936;BME280;62287;50.858;0.252;2023-05-17T00:10:48;102502.89;;;16.22;31.63
73936;BME280;62287;50.858;0.252;2023-05-17T00:11:19;102505.76;;;16.43;31.72
73936;BME280;62287;50.858;0.252;2023-05-17T00:11:51;102505.89;;;16.16;31.72
73936;BME280;62287;50.858;0.252;2023-05-17T00:12:23;102505.25;;;16.39;31.82
73936;BME280;62287;50.858;0.252;2023-05-17T00:12:53;102506.54;;;16.15;31.76
73936;BME280;62287;50.858;0.252;2023-05-17T00:13:24;102504.92;;;16.25;31.87
73936;BME280;62287;50.858;0.252;2023-05-17T00:13:56;102505.39;;;16.20;31.78
73936;BME280;62287;50.858;0.252;2023-05-17T00:14:27;102507.02;;;16.04;31.88
73936;BME280;62287;50.858;0.252;2023-05-17T00:14:58;102506.90;;;15.98;31.97
73936;BME280;62287;50.858;0.252;2023-05-17T00:15:29;102508.66;;;16.49;31.94
73936;BME280;62287;50.858;0.252;2023-05-17T00:16:00;102507.57;;;16.51;31.98
73936;BME280;62287;50.858;0.252;2023-05-17T00:16:31;102507.06;;;16.17;31.98
73936;BME280;62287;50.858;0.252;2023-05-17T00:17:02;102506.67;;;16.24;32.12
73936;BME280;62287;50.858;0.252;2023-05-17T00:17:33;102506.83;;;16.13;32.05
73936;BME280;62287;50.858;0.252;2023-05-17T00:18:04;102507.41;;;16.39;32.21
73936;BME280;62287;50.858;0.252;2023-05-17T00:18:35;102506.15;;;15.96;32.19
73936;BME280;62287;50.858;0.252;2023-05-17T00:19:06;102508.26;;;16.08;32.09
73936;BME280;62287;50.858;0.252;2023-05-17T00:19:37;102507.18;;;16.02;32.13
73936;BME280;62287;50.858;0.252;2023-05-17T00:20:08;102506.18;;;15.59;32.19
73936;BME280;62287;50.858;0.252;2023-05-17T00:20:39;102505.71;;;15.80;31.99
73936;BME280;62287;50.858;0.252;2023-05-17T00:21:10;102505.77;;;16.14;31.97
73936;BME280;62287;50.858;0.252;2023-05-17T00:21:41;102505.13;;;16.67;32.09
73936;BME280;62287;50.858;0.252;2023-05-17T00:22:12;102505.11;;;16.19;31.92
73936;BME280;62287;50.858;0.252;2023-05-17T00:22:43;102503.53;;;16.16;31.83
73936;BME280;62287;50.858;0.252;2023-05-17T00:23:14;102501.92;;;16.28;31.66
73936;BME280;62287;50.858;0.252;2023-05-17T00:23:45;102502.70;;;16.47;31.51
73936;BME280;62287;50.858;0.252;2023-05-17T00:24:16;102500.21;;;16.21;31.58
73936;BME280;62287;50.858;0.252;2023-05-17T00:24:47;102498.78;;;16.29;31.52
73936;BME280;62287;50.858;0.252;2023-05-17T00:25:18;102499.50;;;16.25;31.61
73936;BME280;62287;50.858;0.252;2023-05-17T00:25:49;102498.52;;;16.57;31.53
73936;BME280;62287;50.858;0.252;2023-05-17T00:26:20;102498.07;;;16.29;31.58
73936;BME280;62287;50.858;0.252;2023-05-17T00:26:51;102500.52;;;16.47;31.62
73936;BME280;62287;50.858;0.252;2023-05-17T00:27:23;102497.50;;;16.19;31.61
73936;BME280;62287;50.858;0.252;2023-05-17T00:27:54;102500.51;;;16.16;31.67
73936;BME280;62287;50.858;0.252;2023-05-17T00:28:25;102499.96;;;16.18;31.72
73936;BME280;62287;50.858;0.252;2023-05-17T00:28:56;102500.07;;;16.04;31.77
73936;BME280;62287;50.858;0.252;2023-05-17T00:29:27;102500.07;;;16.13;31.71
73936;BME280;62287;50.858;0.252;2023-05-17T00:29:58;102499.88;;;16.33;31.60
73936;BME280;62287;50.858;0.252;2023-05-17T00:30:29;102499.39;;;16.55;31.52
73936;BME280;62287;50.858;0.252;2023-05-17T00:31:00;102498.74;;;16.21;31.66
73936;BME280;62287;50.858;0.252;2023-05-17T00:31:31;102499.27;;;16.06;31.80
73936;BME280;62287;50.858;0.252;2023-05-17T00:32:02;102499.50;;;16.32;31.72
73936;BME280;62287;50.858;0.252;2023-05-17T00:32:33;102498.75;;;16.38;31.57
73936;BME280;62287;50.858;0.252;2023-05-17T00:33:04;102497.82;;;16.66;31.69
73936;BME280;62287;50.858;0.252;2023-05-17T00:33:35;102496.84;;;15.98;32.03
73936;BME280;62287;50.858;0.252;2023-05-17T00:34:06;102497.19;;;15.87;32.17
73936;BME280;62287;50.858;0.252;2023-05-17T00:34:37;102495.93;;;15.94;32.24
73936;BME280;62287;50.858;0.252;2023-05-17T00:35:08;102496.27;;;16.22;32.24
73936;BME280;62287;50.858;0.252;2023-05-17T00:35:39;102496.03;;;15.88;32.31
73936;BME280;62287;50.858;0.252;2023-05-17T00:36:10;102496.60;;;15.86;32.27
73936;BME280;62287;50.858;0.252;2023-05-17T00:36:41;102497.55;;;16.41;32.27
73936;BME280;62287;50.858;0.252;2023-05-17T00:37:12;102496.24;;;15.94;32.22
73936;BME280;62287;50.858;0.252;2023-05-17T00:37:42;102497.14;;;15.77;32.18
73936;BME280;62287;50.858;0.252;2023-05-17T00:38:13;102496.42;;;16.04;31.95
73936;BME280;62287;50.858;0.252;2023-05-17T00:38:44;102497.60;;;16.12;31.81
73936;BME280;62287;50.858;0.252;2023-05-17T00:39:16;102499.20;;;16.15;31.86
73936;BME280;62287;50.858;0.252;2023-05-17T00:39:46;102499.22;;;16.21;31.99
73936;BME280;62287;50.858;0.252;2023-05-17T00:40:18;102501.24;;;15.64;32.04
73936;BME280;62287;50.858;0.252;2023-05-17T00:40:49;102503.17;;;15.99;31.94
73936;BME280;62287;50.858;0.252;2023-05-17T00:41:20;102503.44;;;15.61;32.09
73936;BME280;62287;50.858;0.252;2023-05-17T00:41:51;102504.51;;;16.16;32.08
73936;BME280;62287;50.858;0.252;2023-05-17T00:42:22;102505.42;;;16.19;32.08
73936;BME280;62287;50.858;0.252;2023-05-17T00:42:53;102504.52;;;15.82;31.99
73936;BME280;62287;50.858;0.252;2023-05-17T00:43:24;102504.74;;;15.91;31.99
73936;BME280;62287;50.858;0.252;2023-05-17T00:43:55;102505.39;;;16.43;31.89
73936;BME280;62287;50.858;0.252;2023-05-17T00:44:26;102504.63;;;16.51;31.90
73936;BME280;62287;50.858;0.252;2023-05-17T00:44:57;102506.01;;;15.86;32.12
73936;BME280;62287;50.858;0.252;2023-05-17T00:45:28;102506.83;;;16.12;31.93
73936;BME280;62287;50.858;0.252;2023-05-17T00:45:59;102506.36;;;16.17;31.80
73936;BME280;62287;50.858;0.252;2023-05-17T00:46:30;102507.82;;;16.31;31.94
73936;BME280;62287;50.858;0.252;2023-05-17T00:47:01;102507.58;;;16.11;32.00
73936;BME280;62287;50.858;0.252;2023-05-17T00:47:32;102506.35;;;16.40;32.00
73936;BME280;62287;50.858;0.252;2023-05-17T00:48:04;102505.31;;;15.72;32.20
73936;BME280;62287;50.858;0.252;2023-05-17T00:48:35;102505.38;;;16.73;32.12
73936;BME280;62287;50.858;0.252;2023-05-17T00:49:06;102505.00;;;16.44;31.95
73936;BME280;62287;50.858;0.252;2023-05-17T00:49:37;102507.29;;;15.93;32.09
73936;BME280;62287;50.858;0.252;2023-05-17T00:50:09;102506.43;;;15.76;32.20
73936;BME280;62287;50.858;0.252;2023-05-17T00:50:40;102507.62;;;15.71;32.31
73936;BME280;62287;50.858;0.252;2023-05-17T00:51:12;102504.98;;;15.86;32.32
73936;BME280;62287;50.858;0.252;2023-05-17T00:51:45;102505.29;;;15.67;32.34
73936;BME280;62287;50.858;0.252;2023-05-17T00:52:16;102505.74;;;16.37;32.14
73936;BME280;62287;50.858;0.252;2023-05-17T00:52:47;102507.94;;;15.94;32.19
73936;BME280;62287;50.858;0.252;2023-05-17T00:53:18;102506.89;;;15.94;32.23
73936;BME280;62287;50.858;0.252;2023-05-17T00:53:49;102506.31;;;16.33;32.31
73936;BME280;62287;50.858;0.252;2023-05-17T00:54:21;102506.28;;;15.89;32.20
73936;BME280;62287;50.858;0.252;2023-05-17T00:54:52;102506.18;;;15.91;32.20
73936;BME280;62287;50.858;0.252;2023-05-17T00:55:23;102507.34;;;15.94;32.11
73936;BME280;62287;50.858;0.252;2023-05-17T00:55:54;102506.37;;;15.66;32.28
73936;BME280;62287;50.858;0.252;2023-05-17T00:56:25;102505.51;;;15.51;32.41
73936;BME280;62287;50.858;0.252;2023-05-17T00:56:56;102506.05;;;15.80;32.29
73936;BME280;62287;50.858;0.252;2023-05-17T00:57:28;102509.60;;;16.46;32.16
73936;BME280;62287;50.858;0.252;2023-05-17T00:58:00;102506.88;;;16.61;32.23
73936;BME280;62287;50.858;0.252;2023-05-17T00:58:31;102506.16;;;15.91;32.26
73936;BME280;62287;50.858;0.252;2023-05-17T00:59:04;102507.34;;;16.36;32.22
73936;BME280;62287;50.858;0.252;2023-05-17T00:59:35;102510.16;;;16.09;32.25
73936;BME280;62287;50.858;0.252;2023-05-17T01:00:08;102507.09;;;15.63;32.41
73936;BME280;62287;50.858;0.252;2023-05-17T01:00:39;102507.78;;;16.22;32.24
73936;BME280;62287;50.858;0.252;2023-05-17T01:01:10;102509.34;;;15.82;32.22
73936;BME280;62287;50.858;0.252;2023-05-17T01:01:42;102507.45;;;16.33;32.34
73936;BME280;62287;50.858;0.252;2023-05-17T01:02:13;102508.77;;;16.01;32.42
73936;BME280;62287;50.858;0.252;2023-05-17T01:02:44;102509.10;;;15.58;32.41
73936;BME280;62287;50.858;0.252;2023-05-17T01:03:15;102510.43;;;16.42;32.37
73936;BME280;62287;50.858;0.252;2023-05-17T01:03:46;102513.53;;;16.50;32.47
73936;BME280;62287;50.858;0.252;2023-05-17T01:04:17;102513.57;;;16.33;32.53
73936;BME280;62287;50.858;0.252;2023-05-17T01:04:49;102514.38;;;16.41;32.44
73936;BME280;62287;50.858;0.252;2023-05-17T01:05:20;102517.36;;;15.72;32.75
73936;BME280;62287;50.858;0.252;2023-05-17T01:05:51;102514.01;;;16.27;32.61
73936;BME280;62287;50.858;0.252;2023-05-17T01:06:22;102513.89;;;16.44;32.53
73936;BME280;62287;50.858;0.252;2023-05-17T01:06:53;102513.22;;;15.82;32.30
73936;BME280;62287;50.858;0.252;2023-05-17T01:07:30;102514.16;;;15.95;32.12
73936;BME280;62287;50.858;0.252;2023-05-17T01:08:01;102512.26;;;15.87;32.09
73936;BME280;62287;50.858;0.252;2023-05-17T01:08:32;102510.01;;;16.02;32.36
73936;BME280;62287;50.858;0.252;2023-05-17T01:09:04;102513.20;;;15.37;32.55
73936;BME280;62287;50.858;0.252;2023-05-17T01:09:35;102509.06;;;16.03;32.53
73936;BME280;62287;50.858;0.252;2023-05-17T01:10:08;102507.37;;;15.56;32.54
73936;BME280;62287;50.858;0.252;2023-05-17T01:10:46;102511.48;;;15.78;32.64
73936;BME280;62287;50.858;0.252;2023-05-17T01:11:31;102508.90;;;15.72;32.81
73936;BME280;62287;50.858;0.252;2023-05-17T01:12:11;102509.39;;;15.06;32.90
73936;BME280;62287;50.858;0.252;2023-05-17T01:12:53;102509.85;;;16.15;32.73
73936;BME280;62287;50.858;0.252;2023-05-17T01:13:32;102506.79;;;16.27;32.70
73936;BME280;62287;50.858;0.252;2023-05-17T01:14:17;102504.51;;;16.52;32.47
73936;BME280;62287;50.858;0.252;2023-05-17T01:15:04;102505.04;;;16.09;32.30
73936;BME280;62287;50.858;0.252;2023-05-17T01:15:42;102504.35;;;16.01;32.31
73936;BME280;62287;50.858;0.252;2023-05-17T01:16:17;102503.34;;;16.47;32.21
73936;BME280;62287;50.858;0.252;2023-05-17T01:16:55;102504.84;;;16.22;32.30
73936;BME280;62287;50.858;0.252;2023-05-17T01:17:34;102505.00;;;16.29;32.30
73936;BME280;62287;50.858;0.252;2023-05-17T01:18:22;102504.66;;;15.54;32.31
73936;BME280;62287;50.858;0.252;2023-05-17T01:19:04;102505.28;;;15.59;32.28
73936;BME280;62287;50.858;0.252;2023-05-17T01:19:49;102504.77;;;15.92;32.21
73936;BME280;62287;50.858;0.252;2023-05-17T01:20:27;102504.45;;;16.08;32.16
73936;BME280;62287;50.858;0.252;2023-05-17T01:21:00;102506.98;;;15.68;32.10
73936;BME280;62287;50.858;0.252;2023-05-17T01:22:37;102503.68;;;16.49;32.00
73936;BME280;62287;50.858;0.252;2023-05-17T01:23:23;102505.66;;;16.41;31.87
73936;BME280;62287;50.858;0.252;2023-05-17T01:24:07;102506.20;;;16.33;31.94
73936;BME280;62287;50.858;0.252;2023-05-17T01:24:54;102504.98;;;16.36;31.95
73936;BME280;62287;50.858;0.252;2023-05-17T01:25:39;102503.10;;;16.65;31.97
73936;BME280;62287;50.858;0.252;2023-05-17T01:26:15;102501.56;;;16.26;32.23
73936;BME280;62287;50.858;0.252;2023-05-17T01:26:48;102503.37;;;15.82;32.25
73936;BME280;62287;50.858;0.252;2023-05-17T01:27:21;102503.64;;;16.36;32.18
73936;BME280;62287;50.858;0.252;2023-05-17T01:28:03;102502.39;;;16.00;32.13
73936;BME280;62287;50.858;0.252;2023-05-17T01:28:36;102504.22;;;16.05;32.13
73936;BME280;62287;50.858;0.252;2023-05-17T01:29:08;102503.23;;;16.29;32.23
73936;BME280;62287;50.858;0.252;2023-05-17T01:29:40;102504.81;;;15.56;32.15
73936;BME280;62287;50.858;0.252;2023-05-17T01:30:14;102507.07;;;16.40;32.07
73936;BME280;62287;50.858;0.252;2023-05-17T01:30:46;102505.22;;;16.06;31.87
73936;BME280;62287;50.858;0.252;2023-05-17T01:31:20;102505.74;;;15.74;31.91
73936;BME280;62287;50.858;0.252;2023-05-17T01:31:53;102505.89;;;16.36;31.99
73936;BME280;62287;50.858;0.252;2023-05-17T01:32:28;102506.00;;;15.97;32.11
73936;BME280;62287;50.858;0.252;2023-05-17T01:33:01;102511.65;;;15.43;32.27
73936;BME280;62287;50.858;0.252;2023-05-17T01:33:33;102508.59;;;16.29;32.27
73936;BME280;62287;50.858;0.252;2023-05-17T01:34:50;102509.50;;;15.43;32.45
73936;BME280;62287;50.858;0.252;2023-05-17T01:35:21;102505.57;;;15.63;32.27
73936;BME280;62287;50.858;0.252;2023-05-17T01:35:52;102505.12;;;16.06;32.22
73936;BME280;62287;50.858;0.252;2023-05-17T01:36:23;102503.94;;;15.66;32.27
73936;BME280;62287;50.858;0.252;2023-05-17T01:36:59;102502.31;;;15.67;32.15
73936;BME280;62287;50.858;0.252;2023-05-17T01:37:30;102501.98;;;16.68;32.05
73936;BME280;62287;50.858;0.252;2023-05-17T01:38:01;102503.37;;;16.11;32.04
73936;BME280;62287;50.858;0.252;2023-05-17T01:38:32;102500.51;;;16.54;31.98
73936;BME280;62287;50.858;0.252;2023-05-17T01:39:04;102503.28;;;16.46;32.06
73936;BME280;62287;50.858;0.252;2023-05-17T01:39:37;102503.75;;;16.12;32.09
73936;BME280;62287;50.858;0.252;2023-05-17T01:40:10;102503.52;;;16.58;32.09
73936;BME280;62287;50.858;0.252;2023-05-17T01:40:47;102502.83;;;16.23;32.27
73936;BME280;62287;50.858;0.252;2023-05-17T01:41:26;102501.95;;;15.95;32.06
73936;BME280;62287;50.858;0.252;2023-05-17T01:42:06;102500.99;;;15.95;31.98
73936;BME280;62287;50.858;0.252;2023-05-17T01:42:41;102502.80;;;16.64;31.96
73936;BME280;62287;50.858;0.252;2023-05-17T01:43:20;102501.15;;;16.18;32.07
73936;BME280;62287;50.858;0.252;2023-05-17T01:43:59;102501.26;;;15.93;31.94
73936;BME280;62287;50.858;0.252;2023-05-17T01:44:37;102500.70;;;15.66;32.16
73936;BME280;62287;50.858;0.252;2023-05-17T01:45:16;102498.82;;;15.60;32.24
73936;BME280;62287;50.858;0.252;2023-05-17T01:45:56;102498.06;;;15.98;32.15
73936;BME280;62287;50.858;0.252;2023-05-17T01:46:35;102498.03;;;15.96;31.96
73936;BME280;62287;50.858;0.252;2023-05-17T01:47:12;102497.11;;;16.55;31.99
73936;BME280;62287;50.858;0.252;2023-05-17T01:47:55;102498.33;;;16.51;31.84
73936;BME280;62287;50.858;0.252;2023-05-17T01:48:35;102498.91;;;16.37;31.87
73936;BME280;62287;50.858;0.252;2023-05-17T01:49:13;102499.91;;;16.54;31.80
73936;BME280;62287;50.858;0.252;2023-05-17T01:49:47;102499.73;;;16.63;31.98
73936;BME280;62287;50.858;0.252;2023-05-17T01:50:24;102500.86;;;15.70;32.01
73936;BME280;62287;50.858;0.252;2023-05-17T01:50:58;102500.88;;;16.67;31.93
73936;BME280;62287;50.858;0.252;2023-05-17T01:51:34;102500.88;;;15.84;32.01
73936;BME280;62287;50.858;0.252;2023-05-17T01:52:12;102501.37;;;15.93;32.12
73936;BME280;62287;50.858;0.252;2023-05-17T01:52:49;102502.44;;;15.86;32.05
73936;BME280;62287;50.858;0.252;2023-05-17T01:53:27;102501.17;;;15.97;32.06
73936;BME280;62287;50.858;0.252;2023-05-17T01:54:02;102501.51;;;15.66;32.06
73936;BME280;62287;50.858;0.252;2023-05-17T01:54:38;102501.33;;;16.00;32.07
73936;BME280;62287;50.858;0.252;2023-05-17T01:56:09;102502.25;;;15.68;32.07
73936;BME280;62287;50.858;0.252;2023-05-17T01:56:48;102503.09;;;15.83;32.24
73936;BME280;62287;50.858;0.252;2023-05-17T01:57:28;102502.39;;;15.94;32.16
73936;BME280;62287;50.858;0.252;2023-05-17T01:58:01;102501.24;;;16.10;32.06
73936;BME280;62287;50.858;0.252;2023-05-17T01:58:39;102502.69;;;15.75;32.29
73936;BME280;62287;50.858;0.252;2023-05-17T01:59:16;102506.80;;;15.55;32.43
73936;BME280;62287;50.858;0.252;2023-05-17T01:59:50;102503.87;;;15.29;32.63
73936;BME280;62287;50.858;0.252;2023-05-17T02:00:24;102506.35;;;16.06;32.45
73936;BME280;62287;50.858;0.252;2023-05-17T02:00:57;102509.16;;;15.50;32.36
73936;BME280;62287;50.858;0.252;2023-05-17T02:01:31;102508.85;;;15.35;32.27
73936;BME280;62287;50.858;0.252;2023-05-17T02:02:03;102509.23;;;15.50;32.19
73936;BME280;62287;50.858;0.252;2023-05-17T02:02:35;102511.57;;;15.81;32.17
73936;BME280;62287;50.858;0.252;2023-05-17T02:03:06;102509.85;;;16.01;32.02
73936;BME280;62287;50.858;0.252;2023-05-17T02:03:37;102514.74;;;15.91;32.05
73936;BME280;62287;50.858;0.252;2023-05-17T02:04:09;102515.15;;;16.13;32.17
73936;BME280;62287;50.858;0.252;2023-05-17T02:04:40;102517.28;;;16.11;32.06
73936;BME280;62287;50.858;0.252;2023-05-17T02:05:11;102517.92;;;16.10;32.16
73936;BME280;62287;50.858;0.252;2023-05-17T02:05:42;102520.07;;;15.82;32.34
73936;BME280;62287;50.858;0.252;2023-05-17T02:06:12;102519.01;;;15.74;32.32
73936;BME280;62287;50.858;0.252;2023-05-17T02:06:46;102521.70;;;15.74;32.26
73936;BME280;62287;50.858;0.252;2023-05-17T02:07:17;102519.69;;;15.57;32.36
73936;BME280;62287;50.858;0.252;2023-05-17T02:07:48;102520.03;;;15.71;32.50
73936;BME280;62287;50.858;0.252;2023-05-17T02:08:19;102520.77;;;15.63;32.45
73936;BME280;62287;50.858;0.252;2023-05-17T02:08:50;102522.16;;;15.67;32.41
73936;BME280;62287;50.858;0.252;2023-05-17T02:09:21;102521.08;;;15.79;32.47
73936;BME280;62287;50.858;0.252;2023-05-17T02:09:53;102521.77;;;15.89;32.52
73936;BME280;62287;50.858;0.252;2023-05-17T02:10:24;102520.35;;;15.23;32.60
73936;BME280;62287;50.858;0.252;2023-05-17T02:10:55;102521.37;;;15.23;32.70
73936;BME280;62287;50.858;0.252;2023-05-17T02:11:26;102522.31;;;15.28;32.66
73936;BME280;62287;50.858;0.252;2023-05-17T02:11:58;102521.66;;;15.45;32.61
73936;BME280;62287;50.858;0.252;2023-05-17T02:12:29;102522.28;;;15.24;32.57
73936;BME280;62287;50.858;0.252;2023-05-17T02:13:00;102523.39;;;15.58;32.79
73936;BME280;62287;50.858;0.252;2023-05-17T02:13:31;102523.33;;;15.72;32.57
73936;BME280;62287;50.858;0.252;2023-05-17T02:14:02;102525.03;;;15.91;32.48
73936;BME280;62287;50.858;0.252;2023-05-17T02:14:33;102528.73;;;16.19;32.26
73936;BME280;62287;50.858;0.252;2023-05-17T02:15:05;102526.90;;;15.23;32.35
73936;BME280;62287;50.858;0.252;2023-05-17T02:15:36;102527.90;;;16.12;32.31
73936;BME280;62287;50.858;0.252;2023-05-17T02:16:07;102529.18;;;16.13;32.25
73936;BME280;62287;50.858;0.252;2023-05-17T02:16:38;102527.88;;;15.64;32.34
73936;BME280;62287;50.858;0.252;2023-05-17T02:17:09;102527.77;;;15.52;32.71
73936;BME280;62287;50.858;0.252;2023-05-17T02:17:40;102528.21;;;15.17;32.79
73936;BME280;62287;50.858;0.252;2023-05-17T02:18:11;102527.15;;;14.98;32.69
73936;BME280;62287;50.858;0.252;2023-05-17T02:18:42;102524.62;;;15.72;32.54
73936;BME280;62287;50.858;0.252;2023-05-17T02:19:13;102524.74;;;15.89;32.52
73936;BME280;62287;50.858;0.252;2023-05-17T02:19:44;102525.30;;;15.48;32.56
73936;BME280;62287;50.858;0.252;2023-05-17T02:20:15;102522.89;;;15.51;32.53
73936;BME280;62287;50.858;0.252;2023-05-17T02:20:46;102523.13;;;16.00;32.44
73936;BME280;62287;50.858;0.252;2023-05-17T02:21:16;102525.07;;;15.37;32.31
73936;BME280;62287;50.858;0.252;2023-05-17T02:21:48;102524.48;;;15.85;32.34
73936;BME280;62287;50.858;0.252;2023-05-17T02:22:19;102523.36;;;16.05;32.41
73936;BME280;62287;50.858;0.252;2023-05-17T02:22:49;102523.04;;;16.23;32.26
73936;BME280;62287;50.858;0.252;2023-05-17T02:23:20;102523.31;;;15.72;32.28
73936;BME280;62287;50.858;0.252;2023-05-17T02:23:51;102522.34;;;15.66;32.41
73936;BME280;62287;50.858;0.252;2023-05-17T02:24:22;102521.21;;;16.06;32.39
73936;BME280;62287;50.858;0.252;2023-05-17T02:24:53;102521.47;;;16.25;32.27
73936;BME280;62287;50.858;0.252;2023-05-17T02:25:24;102521.11;;;15.73;32.35
73936;BME280;62287;50.858;0.252;2023-05-17T02:25:55;102519.43;;;15.95;32.48
73936;BME280;62287;50.858;0.252;2023-05-17T02:26:26;102519.56;;;15.45;32.55
73936;BME280;62287;50.858;0.252;2023-05-17T02:26:57;102518.30;;;15.52;32.79
73936;BME280;62287;50.858;0.252;2023-05-17T02:27:29;102517.32;;;15.37;32.91
73936;BME280;62287;50.858;0.252;2023-05-17T02:28:00;102518.71;;;15.28;32.90
73936;BME280;62287;50.858;0.252;2023-05-17T02:28:31;102516.14;;;15.56;32.83
73936;BME280;62287;50.858;0.252;2023-05-17T02:29:01;102515.00;;;15.58;32.52
73936;BME280;62287;50.858;0.252;2023-05-17T02:29:32;102515.09;;;15.59;32.40
73936;BME280;62287;50.858;0.252;2023-05-17T02:30:05;102513.73;;;16.16;32.53
73936;BME280;62287;50.858;0.252;2023-05-17T02:30:36;102515.02;;;15.51;32.78
73936;BME280;62287;50.858;0.252;2023-05-17T02:31:08;102515.31;;;15.91;32.62
73936;BME280;62287;50.858;0.252;2023-05-17T02:31:38;102517.97;;;15.67;32.60
73936;BME280;62287;50.858;0.252;2023-05-17T02:32:09;102516.67;;;15.88;32.53
73936;BME280;62287;50.858;0.252;2023-05-17T02:32:40;102518.29;;;15.99;32.49
73936;BME280;62287;50.858;0.252;2023-05-17T02:33:11;102519.98;;;15.70;32.67
73936;BME280;62287;50.858;0.252;2023-05-17T02:33:42;102519.60;;;15.88;32.55
73936;BME280;62287;50.858;0.252;2023-05-17T02:34:18;102521.12;;;15.38;32.56
73936;BME280;62287;50.858;0.252;2023-05-17T02:34:49;102522.13;;;15.60;32.74
73936;BME280;62287;50.858;0.252;2023-05-17T02:35:20;102524.21;;;15.23;32.75
73936;BME280;62287;50.858;0.252;2023-05-17T02:35:51;102525.76;;;16.03;32.69
73936;BME280;62287;50.858;0.252;2023-05-17T02:36:22;102525.98;;;15.57;32.73
73936;BME280;62287;50.858;0.252;2023-05-17T02:36:53;102525.34;;;15.08;33.07
73936;BME280;62287;50.858;0.252;2023-05-17T02:37:24;102529.80;;;14.99;33.25
73936;BME280;62287;50.858;0.252;2023-05-17T02:37:55;102527.96;;;14.71;33.18
73936;BME280;62287;50.858;0.252;2023-05-17T02:38:31;102531.29;;;14.31;33.19
73936;BME280;62287;50.858;0.252;2023-05-17T02:39:02;102531.50;;;15.02;33.23
73936;BME280;62287;50.858;0.252;2023-05-17T02:39:35;102529.66;;;14.92;33.07
73936;BME280;62287;50.858;0.252;2023-05-17T02:40:07;102530.69;;;15.09;33.21
73936;BME280;62287;50.858;0.252;2023-05-17T02:40:40;102530.75;;;15.20;33.23
73936;BME280;62287;50.858;0.252;2023-05-17T02:41:11;102535.56;;;14.87;33.34
73936;BME280;62287;50.858;0.252;2023-05-17T02:41:42;102531.10;;;15.26;33.21
73936;BME280;62287;50.858;0.252;2023-05-17T02:42:13;102533.81;;;15.20;33.22
73936;BME280;62287;50.858;0.252;2023-05-17T02:42:45;102536.10;;;15.28;33.00
73936;BME280;62287;50.858;0.252;2023-05-17T02:43:16;102534.33;;;15.53;32.94
73936;BME280;62287;50.858;0.252;2023-05-17T02:43:47;102534.43;;;15.73;32.84
73936;BME280;62287;50.858;0.252;2023-05-17T02:44:18;102532.23;;;15.98;32.87
73936;BME280;62287;50.858;0.252;2023-05-17T02:44:49;102536.57;;;15.73;32.81
73936;BME280;62287;50.858;0.252;2023-05-17T02:45:20;102537.15;;;15.35;32.89
73936;BME280;62287;50.858;0.252;2023-05-17T02:45:51;102537.99;;;15.79;32.79
73936;BME280;62287;50.858;0.252;2023-05-17T02:46:22;102537.10;;;15.74;32.86
73936;BME280;62287;50.858;0.252;2023-05-17T02:46:53;102538.21;;;15.71;32.96
73936;BME280;62287;50.858;0.252;2023-05-17T02:47:24;102538.08;;;16.02;32.68
73936;BME280;62287;50.858;0.252;2023-05-17T02:47:55;102536.99;;;15.70;32.89
73936;BME280;62287;50.858;0.252;2023-05-17T02:48:26;102535.27;;;15.66;32.92
73936;BME280;62287;50.858;0.252;2023-05-17T02:48:57;102532.24;;;15.81;32.87
73936;BME280;62287;50.858;0.252;2023-05-17T02:49:28;102533.15;;;16.23;32.84
73936;BME280;62287;50.858;0.252;2023-05-17T02:49:59;102532.38;;;15.72;32.89
73936;BME280;62287;50.858;0.252;2023-05-17T02:50:30;102531.02;;;15.67;32.93
73936;BME280;62287;50.858;0.252;2023-05-17T02:51:01;102532.92;;;15.16;33.01
73936;BME280;62287;50.858;0.252;2023-05-17T02:51:31;102531.22;;;15.74;32.94
73936;BME280;62287;50.858;0.252;2023-05-17T02:52:03;102530.35;;;15.73;32.91
73936;BME280;62287;50.858;0.252;2023-05-17T02:52:34;102531.31;;;15.64;32.97
73936;BME280;62287;50.858;0.252;2023-05-17T02:53:05;102530.21;;;15.77;32.90
73936;BME280;62287;50.858;0.252;2023-05-17T02:53:36;102529.30;;;15.67;32.91